createdAt,value
2022-11-22T00:00:47.577Z,6.27
2022-11-22T00:03:15.076Z,6.20
2022-11-22T00:05:42.573Z,4.93
2022-11-22T00:08:10.463Z,3.87
2022-11-22T00:10:39.604Z,5.73
2022-11-22T00:13:07.109Z,6.67
2022-11-22T00:15:34.945Z,5.50
2022-11-22T00:18:02.560Z,6.23
2022-11-22T00:20:30.187Z,5.93
2022-11-22T00:23:00.786Z,5.10
2022-11-22T00:25:28.336Z,6.40
2022-11-22T00:27:57.136Z,3.13
2022-11-22T00:30:24.679Z,6.30
2022-11-22T00:32:52.193Z,4.63
2022-11-22T00:35:19.701Z,5.70
2022-11-22T00:37:47.741Z,6.17
2022-11-22T00:40:15.677Z,7.67
2022-11-22T00:42:43.276Z,3.50
2022-11-22T00:45:12.703Z,4.70
2022-11-22T00:47:40.245Z,6.43
2022-11-22T00:50:08.357Z,4.20
2022-11-22T00:52:35.889Z,3.03
2022-11-22T00:55:03.456Z,5.87
2022-11-22T00:57:31.082Z,4.57
2022-11-22T00:59:58.604Z,4.87
2022-11-22T01:02:27.540Z,6.30
2022-11-22T01:04:55.012Z,5.67
2022-11-22T01:07:22.623Z,9.53
2022-11-22T01:09:50.130Z,4.03
2022-11-22T01:12:17.668Z,6.60
2022-11-22T01:14:45.153Z,5.27
2022-11-22T01:17:12.768Z,5.23
2022-11-22T01:19:41.827Z,3.83
2022-11-22T01:22:09.364Z,5.97
2022-11-22T01:24:36.840Z,5.43
2022-11-22T01:27:04.400Z,7.50
2022-11-22T01:29:32.081Z,6.63
2022-11-22T01:31:59.806Z,6.43
2022-11-22T01:34:27.398Z,6.80
2022-11-22T01:36:56.316Z,6.03
2022-11-22T01:39:23.800Z,6.63
2022-11-22T01:41:51.308Z,4.57
2022-11-22T01:44:20.304Z,5.87
2022-11-22T01:46:50.242Z,5.00
2022-11-22T01:49:27.247Z,6.97
2022-11-22T01:52:00.666Z,4.93
2022-11-22T01:54:33.298Z,5.80
2022-11-22T01:57:06.650Z,5.13
2022-11-22T01:59:36.523Z,4.87
2022-11-22T02:02:05.250Z,6.77
2022-11-22T02:04:33.862Z,6.53
2022-11-22T02:07:09.560Z,6.93
2022-11-22T02:09:38.760Z,6.03
2022-11-22T02:12:09.345Z,5.13
2022-11-22T02:14:39.337Z,4.40
2022-11-22T02:17:07.102Z,4.70
2022-11-22T02:19:41.536Z,5.97
2022-11-22T02:22:20.559Z,5.07
2022-11-22T02:24:55.529Z,5.83
2022-11-22T02:27:24.769Z,7.20
2022-11-22T02:29:52.349Z,7.07
2022-11-22T02:32:19.901Z,6.77
2022-11-22T02:34:48.837Z,8.60
2022-11-22T02:37:20.212Z,6.07
2022-11-22T02:39:49.183Z,5.80
2022-11-22T02:42:16.844Z,6.23
2022-11-22T02:44:45.720Z,6.83
2022-11-22T02:47:13.329Z,5.03
2022-11-22T02:49:40.853Z,5.23
2022-11-22T02:52:08.346Z,6.63
2022-11-22T02:54:35.879Z,5.10
2022-11-22T02:57:03.845Z,6.30
2022-11-22T02:59:31.877Z,7.67
2022-11-22T03:02:03.429Z,7.10
2022-11-22T03:04:31.367Z,6.63
2022-11-22T03:07:00.919Z,6.77
2022-11-22T03:09:29.558Z,5.93
2022-11-22T03:11:57.262Z,6.40
2022-11-22T03:14:25.143Z,4.17
2022-11-22T03:16:52.907Z,7.10
2022-11-22T03:19:22.366Z,6.77
2022-11-22T03:21:49.876Z,8.13
2022-11-22T03:24:17.481Z,5.97
2022-11-22T03:26:47.901Z,4.70
2022-11-22T03:29:15.742Z,5.93
2022-11-22T03:31:43.244Z,6.03
2022-11-22T03:34:12.349Z,5.63
2022-11-22T03:36:41.134Z,7.90
2022-11-22T03:39:08.729Z,3.40
2022-11-22T03:41:36.230Z,6.07
2022-11-22T03:44:04.909Z,7.93
2022-11-22T03:46:32.456Z,7.53
2022-11-22T03:48:59.943Z,7.93
2022-11-22T03:51:27.562Z,7.90
2022-11-22T03:53:56.419Z,5.87
2022-11-22T03:56:23.908Z,4.93
2022-11-22T03:58:51.462Z,5.60
2022-11-22T04:01:19.038Z,7.20
2022-11-22T04:03:46.689Z,7.87
2022-11-22T04:06:14.194Z,7.87
2022-11-22T04:08:41.822Z,6.37
2022-11-22T04:11:10.788Z,6.17
2022-11-22T04:13:55.985Z,7.77
2022-11-22T04:16:23.546Z,7.70
2022-11-22T04:18:51.054Z,7.00
2022-11-22T04:21:35.612Z,9.07
2022-11-22T04:24:20.985Z,7.57
2022-11-22T04:26:50.292Z,9.13
2022-11-22T04:29:19.968Z,6.70
2022-11-22T04:32:05.844Z,7.93
2022-11-22T04:34:33.660Z,8.30
2022-11-22T04:37:01.932Z,6.20
2022-11-22T04:39:29.956Z,5.63
2022-11-22T04:42:17.368Z,8.07
2022-11-22T04:44:45.913Z,8.00
2022-11-22T04:47:37.819Z,9.77
2022-11-22T04:50:28.833Z,7.87
2022-11-22T04:52:56.318Z,6.17
2022-11-22T04:55:24.349Z,5.70
2022-11-22T04:57:58.863Z,11.73
2022-11-22T05:00:28.239Z,8.87
2022-11-22T05:02:55.843Z,8.20
2022-11-22T05:05:23.312Z,9.27
2022-11-22T05:07:50.889Z,10.17
2022-11-22T05:10:24.485Z,9.80
2022-11-22T05:12:55.361Z,6.37
2022-11-22T05:15:22.874Z,5.40
2022-11-22T05:17:50.440Z,6.23
2022-11-22T05:20:18.023Z,6.53
2022-11-22T05:23:02.970Z,8.83
2022-11-22T05:25:30.623Z,6.80
2022-11-22T05:27:59.447Z,7.27
2022-11-22T05:30:26.909Z,8.67
2022-11-22T05:32:55.970Z,9.17
2022-11-22T05:35:23.507Z,7.50
2022-11-22T05:37:51.007Z,10.53
2022-11-22T05:40:18.447Z,8.90
2022-11-22T05:42:45.894Z,9.20
2022-11-22T05:45:14.865Z,4.80
2022-11-22T05:47:42.676Z,7.70
2022-11-22T05:50:11.083Z,6.97
2022-11-22T05:52:39.301Z,7.00
2022-11-22T05:55:07.922Z,6.60
2022-11-22T05:57:35.441Z,6.83
2022-11-22T06:00:03.457Z,6.07
2022-11-22T06:02:42.669Z,6.63
2022-11-22T06:05:12.202Z,3.23
2022-11-22T06:07:41.321Z,8.00
2022-11-22T06:10:11.277Z,4.40
2022-11-22T06:12:41.190Z,6.93
2022-11-22T06:15:11.722Z,9.20
2022-11-22T06:17:45.145Z,8.57
2022-11-22T06:23:54.905Z,7.93
2022-11-22T06:27:18.319Z,5.23
2022-11-22T06:31:46.888Z,9.07
2022-11-22T06:45:41.135Z,5.97
2022-11-22T06:49:11.102Z,4.47
2022-11-22T06:51:52.415Z,7.63
2022-11-22T06:59:17.052Z,8.17
2022-11-22T07:01:53.972Z,10.43
2022-11-22T07:04:23.099Z,7.40
2022-11-22T07:06:53.196Z,7.30
2022-11-22T07:09:21.320Z,8.40
2022-11-22T07:11:49.449Z,8.10
2022-11-22T07:14:18.170Z,8.07
2022-11-22T07:16:49.148Z,10.47
2022-11-22T07:19:17.583Z,7.47
2022-11-22T07:21:45.987Z,7.73
2022-11-22T07:24:19.469Z,7.70
2022-11-22T07:26:47.798Z,7.90
2022-11-22T07:29:16.679Z,7.37
2022-11-22T07:31:48.134Z,10.50
2022-11-22T07:34:18.107Z,6.13
2022-11-22T07:39:43.675Z,6.00
2022-11-22T07:42:58.584Z,7.50
2022-11-22T07:45:47.745Z,8.30
2022-11-22T07:51:36.225Z,5.43
2022-11-22T07:54:57.863Z,6.90
2022-11-22T08:01:55.020Z,7.80
2022-11-22T08:11:42.380Z,8.13
2022-11-22T08:14:54.262Z,7.00
2022-11-22T08:17:39.575Z,6.03
2022-11-22T08:20:15.105Z,10.30
2022-11-22T08:23:01.902Z,11.43
2022-11-22T08:25:32.805Z,9.00
2022-11-22T08:28:13.728Z,10.57
2022-11-22T08:30:48.191Z,6.17
2022-11-22T08:33:31.497Z,8.60
2022-11-22T08:36:08.479Z,6.73
2022-11-22T08:38:45.321Z,9.73
2022-11-22T08:41:30.498Z,9.03
2022-11-22T08:52:06.283Z,6.30
2022-11-22T08:59:50.080Z,8.00
2022-11-22T09:09:42.471Z,10.40
2022-11-22T09:14:15.437Z,10.70
2022-11-22T09:18:08.603Z,9.93
2022-11-22T09:21:16.483Z,9.90
2022-11-22T09:24:31.441Z,6.50
2022-11-22T09:27:02.796Z,6.70
2022-11-22T09:30:08.158Z,7.00
2022-11-22T09:32:36.838Z,9.83
2022-11-22T09:35:11.911Z,9.47
2022-11-22T09:37:40.219Z,11.37
2022-11-22T09:40:21.473Z,2.87
2022-11-22T09:43:25.998Z,8.97
2022-11-22T09:46:44.690Z,8.90
2022-11-22T09:50:10.580Z,9.93
2022-11-22T09:53:13.234Z,9.57
2022-11-22T10:00:35.405Z,10.53
2022-11-22T10:19:49.493Z,7.63
2022-11-22T10:22:19.494Z,8.53
2022-11-22T10:24:48.266Z,8.30
2022-11-22T10:27:18.106Z,9.97
2022-11-22T10:29:53.789Z,10.13
2022-11-22T10:32:28.807Z,10.57
2022-11-22T10:35:14.656Z,7.27
2022-11-22T10:37:52.270Z,8.30
2022-11-22T10:40:27.100Z,10.47
2022-11-22T10:43:12.252Z,11.87
2022-11-22T10:45:47.528Z,10.13
2022-11-22T10:48:29.102Z,11.73
2022-11-22T10:51:20.377Z,9.33
2022-11-22T10:54:39.067Z,10.60
2022-11-22T10:57:41.264Z,11.67
2022-11-22T11:00:39.403Z,10.97
2022-11-22T11:03:22.235Z,9.60
2022-11-22T11:09:54.886Z,8.47
2022-11-22T11:13:03.332Z,10.20
2022-11-22T11:15:56.064Z,7.93
2022-11-22T11:26:07.056Z,12.03
2022-11-22T11:29:01.923Z,9.43
2022-11-22T11:51:21.885Z,8.73
2022-11-22T11:55:04.461Z,8.97
2022-11-22T11:57:46.655Z,7.43
2022-11-22T12:00:24.789Z,9.80
2022-11-22T12:03:07.572Z,11.07
2022-11-22T12:05:38.954Z,9.53
2022-11-22T12:08:49.217Z,7.70
2022-11-22T12:11:52.267Z,7.60
2022-11-22T12:14:37.748Z,9.63
2022-11-22T12:17:28.903Z,8.57
2022-11-22T12:20:06.908Z,9.83
2022-11-22T12:22:49.782Z,7.67
2022-11-22T12:25:36.600Z,11.37
2022-11-22T12:28:20.149Z,9.63
2022-11-22T12:30:57.678Z,7.57
2022-11-22T12:37:25.346Z,11.20
2022-11-22T12:39:57.077Z,4.30
2022-11-22T12:42:35.702Z,10.87
2022-11-22T12:45:18.445Z,7.97
2022-11-22T12:47:51.845Z,9.80
2022-11-22T12:50:39.916Z,8.80
2022-11-22T12:53:14.330Z,10.33
2022-11-22T12:55:49.947Z,6.63
2022-11-22T12:58:22.357Z,3.23
2022-11-22T13:01:05.729Z,9.97
2022-11-22T13:03:39.721Z,10.03
2022-11-22T13:06:09.874Z,8.53
2022-11-22T13:08:42.832Z,10.10
2022-11-22T13:11:17.472Z,9.47
2022-11-22T13:13:48.705Z,9.77
2022-11-22T13:16:16.389Z,10.43
2022-11-22T13:18:47.685Z,9.60
2022-11-22T13:21:23.363Z,10.23
2022-11-22T13:24:08.961Z,8.90
2022-11-22T13:26:43.304Z,10.07
2022-11-22T13:29:21.999Z,8.37
2022-11-22T13:32:04.523Z,7.83
2022-11-22T13:34:33.960Z,11.07
2022-11-22T13:37:10.898Z,10.40
2022-11-22T13:39:44.368Z,10.00
2022-11-22T13:42:18.570Z,10.73
2022-11-22T13:45:13.503Z,11.10
2022-11-22T13:47:43.112Z,10.33
2022-11-22T13:50:57.042Z,9.67
2022-11-22T13:53:28.944Z,8.67
2022-11-22T13:55:58.101Z,10.90
2022-11-22T13:58:52.492Z,8.97
2022-11-22T14:01:58.228Z,7.93
2022-11-22T14:04:34.878Z,8.90
2022-11-22T14:07:05.911Z,8.70
2022-11-22T14:09:38.319Z,6.77
2022-11-22T14:12:24.085Z,9.50
2022-11-22T14:15:12.663Z,8.63
2022-11-22T14:17:51.796Z,8.50
2022-11-22T14:20:35.963Z,9.60
2022-11-22T14:23:11.382Z,7.67
2022-11-22T14:25:56.590Z,10.30
2022-11-22T14:28:59.515Z,9.53
2022-11-22T14:31:32.075Z,8.90
2022-11-22T14:34:21.809Z,10.67
2022-11-22T14:37:37.887Z,10.77
2022-11-22T14:40:27.102Z,10.13
2022-11-22T14:43:00.663Z,7.10
2022-11-22T14:45:39.672Z,10.37
2022-11-22T14:48:17.595Z,9.53
2022-11-22T14:50:49.113Z,10.07
2022-11-22T14:53:24.163Z,9.60
2022-11-22T14:55:55.745Z,9.90
2022-11-22T14:58:26.716Z,9.70
2022-11-22T15:01:16.197Z,7.77
2022-11-22T15:09:21.286Z,9.30
2022-11-22T15:09:21.751Z,8.47
2022-11-22T15:10:25.719Z,9.70
2022-11-22T15:13:08.966Z,10.53
2022-11-22T15:59:01.638Z,9.17
2022-11-22T16:01:29.529Z,8.73
2022-11-22T16:03:59.601Z,7.93
2022-11-22T16:06:30.737Z,10.33
2022-11-22T16:09:01.573Z,11.73
2022-11-22T16:11:34.725Z,9.73
2022-11-22T16:14:02.278Z,9.10
2022-11-22T16:16:31.481Z,9.67
2022-11-22T16:19:21.972Z,11.03
2022-11-22T16:22:28.569Z,10.87
2022-11-22T16:25:23.475Z,9.90
2022-11-22T16:27:52.360Z,9.73
2022-11-22T16:30:23.602Z,10.00
2022-11-22T16:32:53.732Z,12.60
2022-11-22T16:35:29.455Z,8.47
2022-11-22T16:37:57.397Z,11.50
2022-11-22T16:40:24.976Z,10.00
2022-11-22T16:42:54.021Z,7.70
2022-11-22T16:45:22.952Z,11.13
2022-11-22T16:48:03.810Z,11.93
2022-11-22T16:50:39.776Z,9.13
2022-11-22T16:53:12.146Z,10.37
2022-11-22T16:55:40.210Z,9.80
2022-11-22T16:58:16.398Z,11.70
2022-11-22T17:00:44.975Z,10.70
2022-11-22T17:03:15.538Z,8.57
2022-11-22T17:05:43.019Z,12.17
2022-11-22T17:08:13.425Z,10.13
2022-11-22T17:10:43.898Z,9.13
2022-11-22T17:13:17.247Z,10.33
2022-11-22T17:15:45.264Z,11.37
2022-11-22T17:18:12.718Z,10.90
2022-11-22T17:20:40.615Z,9.27
2022-11-22T17:23:13.965Z,11.60
2022-11-22T17:25:41.497Z,10.87
2022-11-22T17:28:08.923Z,12.17
2022-11-22T17:30:37.994Z,10.93
2022-11-22T17:33:05.528Z,10.13
2022-11-22T17:35:37.063Z,11.03
2022-11-22T17:38:05.217Z,11.50
2022-11-22T17:40:32.764Z,9.13
2022-11-22T17:43:00.341Z,10.93
2022-11-22T17:45:28.069Z,7.63
2022-11-22T17:47:56.856Z,9.70
2022-11-22T17:50:24.371Z,11.47
2022-11-22T17:52:52.878Z,11.10
2022-11-22T17:55:20.339Z,8.10
2022-11-22T17:57:51.609Z,9.43
2022-11-22T18:00:28.428Z,9.23
2022-11-22T18:03:01.488Z,11.50
2022-11-22T18:05:35.450Z,11.33
2022-11-22T18:08:03.038Z,11.53
2022-11-22T18:10:30.583Z,10.70
2022-11-22T18:13:20.331Z,10.77
2022-11-22T18:15:46.210Z,11.07
2022-11-22T18:18:40.311Z,8.43
2022-11-22T18:21:04.022Z,10.17
2022-11-22T18:23:33.996Z,12.10
2022-11-22T18:26:38.831Z,7.87
2022-11-22T18:29:16.115Z,11.70
2022-11-22T18:31:51.235Z,9.80
2022-11-22T18:34:27.436Z,8.87
2022-11-22T18:37:00.450Z,11.00
2022-11-22T18:39:36.291Z,11.63
2022-11-22T18:42:05.217Z,11.17
2022-11-22T18:44:32.715Z,10.03
2022-11-22T18:47:00.270Z,10.53
2022-11-22T18:49:29.436Z,13.13
2022-11-22T18:51:57.307Z,11.17
2022-11-22T18:55:00.440Z,10.03
2022-11-22T18:57:47.346Z,12.33
2022-11-22T19:00:17.198Z,10.43
2022-11-22T19:02:45.717Z,9.53
2022-11-22T19:05:15.318Z,11.43
2022-11-22T19:07:44.124Z,11.17
2022-11-22T19:10:11.804Z,10.97
2022-11-22T19:12:39.401Z,9.73
2022-11-22T19:15:08.138Z,9.93
2022-11-22T19:17:39.029Z,10.20
2022-11-22T19:20:39.239Z,11.00
2022-11-22T19:23:50.937Z,9.97
2022-11-22T19:26:56.067Z,8.47
2022-11-22T19:29:26.968Z,11.63
2022-11-22T19:36:09.930Z,11.00
2022-11-22T19:38:42.041Z,9.00
2022-11-22T19:41:20.335Z,8.33
2022-11-22T19:43:54.089Z,10.70
2022-11-22T19:46:21.621Z,10.33
2022-11-22T19:48:55.003Z,12.07
2022-11-22T19:51:24.076Z,11.57
2022-11-22T19:54:20.913Z,11.80
2022-11-22T19:56:50.800Z,11.37
2022-11-22T19:59:19.732Z,12.43
2022-11-22T20:01:50.572Z,12.30
2022-11-22T20:04:21.446Z,12.50
2022-11-22T20:06:50.529Z,10.93
2022-11-22T20:09:28.466Z,8.90
2022-11-22T20:12:00.813Z,11.83
2022-11-22T20:14:39.255Z,10.53
2022-11-22T20:17:07.177Z,10.90
2022-11-22T20:19:35.539Z,11.80
2022-11-22T20:22:06.371Z,12.53
2022-11-22T20:24:42.158Z,10.67
2022-11-22T20:27:13.973Z,11.33
2022-11-22T20:29:45.046Z,10.40
2022-11-22T20:32:20.712Z,10.40
2022-11-22T20:34:51.464Z,10.73
2022-11-22T20:37:46.730Z,13.20
2022-11-22T20:40:14.516Z,11.27
2022-11-22T20:42:46.707Z,11.33
2022-11-22T20:45:23.861Z,11.93
2022-11-22T20:48:16.705Z,10.37
2022-11-22T20:50:50.841Z,9.67
2022-11-22T20:53:18.960Z,11.27
2022-11-22T20:56:10.722Z,10.33
2022-11-22T21:01:29.544Z,10.20
2022-11-22T21:03:57.155Z,12.67
2022-11-22T21:06:42.464Z,12.20
2022-11-22T21:09:20.650Z,10.87
2022-11-22T21:11:54.156Z,11.43
2022-11-22T21:14:21.703Z,11.50
2022-11-22T21:16:50.592Z,10.30
2022-11-22T21:19:18.590Z,12.50
2022-11-22T21:21:46.198Z,12.53
2022-11-22T21:24:13.992Z,10.23
2022-11-22T21:26:41.833Z,11.07
2022-11-22T21:29:16.485Z,8.73
2022-11-22T21:31:44.549Z,11.07
2022-11-22T21:34:15.900Z,8.27
2022-11-22T21:36:43.759Z,11.57
2022-11-22T21:39:11.551Z,10.70
2022-11-22T21:41:40.879Z,11.67
2022-11-22T21:44:09.372Z,8.07
2022-11-22T21:46:37.502Z,10.93
2022-11-22T21:49:05.182Z,12.43
2022-11-22T21:51:34.173Z,10.83
2022-11-22T21:54:02.888Z,11.97
2022-11-22T21:56:31.591Z,11.90
2022-11-22T21:58:59.374Z,10.80
2022-11-22T22:01:27.763Z,10.47
2022-11-22T22:03:55.761Z,9.57
2022-11-22T22:06:23.602Z,9.27
2022-11-22T22:08:52.594Z,12.23
2022-11-22T22:11:20.208Z,11.80
2022-11-22T22:13:47.669Z,13.33
2022-11-22T22:16:19.019Z,11.40
2022-11-22T22:18:47.170Z,11.37
2022-11-22T22:21:15.768Z,11.57
2022-11-22T22:23:44.896Z,10.63
2022-11-22T22:26:15.320Z,11.77
2022-11-22T22:28:44.174Z,11.37
2022-11-22T22:31:13.726Z,11.13
2022-11-22T22:33:42.396Z,12.87
2022-11-22T22:36:11.305Z,11.67
2022-11-22T22:38:39.733Z,11.87
2022-11-22T22:41:08.316Z,11.17
2022-11-22T22:43:40.201Z,11.63
2022-11-22T22:46:10.662Z,12.03
2022-11-22T22:48:38.457Z,12.40
2022-11-22T22:51:08.052Z,11.07
2022-11-22T22:53:35.848Z,11.53
2022-11-22T22:56:03.776Z,11.03
2022-11-22T22:58:31.287Z,12.30
2022-11-22T23:01:07.159Z,10.83
2022-11-22T23:03:34.802Z,9.93
2022-11-22T23:06:06.266Z,10.23
2022-11-22T23:08:33.775Z,10.70
2022-11-22T23:11:06.431Z,11.00
2022-11-22T23:13:36.280Z,10.50
2022-11-22T23:16:04.059Z,10.53
2022-11-22T23:18:36.419Z,12.80
2022-11-22T23:21:05.340Z,9.03
2022-11-22T23:23:33.174Z,10.73
2022-11-22T23:26:02.749Z,11.60
2022-11-22T23:28:30.319Z,11.83
2022-11-22T23:30:58.111Z,12.17
2022-11-22T23:33:25.657Z,11.37
2022-11-22T23:35:54.464Z,11.30
2022-11-22T23:38:21.980Z,11.77
2022-11-22T23:40:53.742Z,12.20
2022-11-22T23:43:21.270Z,11.77
2022-11-22T23:45:48.757Z,12.03
2022-11-22T23:48:16.684Z,10.57
2022-11-22T23:50:44.364Z,13.00
2022-11-22T23:53:13.205Z,12.40
2022-11-22T23:55:40.671Z,12.03
2022-11-22T23:58:08.305Z,10.83
